Time;durP1;ratioP1;P1;durP2;ratioP2;P2;SDS_P1;SDS_P2;PMS_P1;PMS_P2;Temp;Humidity;BMP_temperature;BMP_pressure;BME280_temperature;BME280_humidity;BME280_pressure;Samples;Min_cycle;Max_cycle;Signal;HPM_P1;HPM_P2
2023/08/21 00:02:00;;;;;;;2.08;1.35;;;16.50;99.90;;;;;;5049339;28;20037;-80
2023/08/21 00:04:25;;;;;;;3.90;1.00;;;17.40;99.90;;;;;;5032604;28;20401;-81
2023/08/21 00:06:51;;;;;;;4.53;1.10;;;16.40;99.90;;;;;;5049204;28;20044;-79
2023/08/21 00:09:16;;;;;;;7.63;1.75;;;16.30;99.90;;;;;;5031746;28;20524;-80
2023/08/21 00:11:42;;;;;;;3.90;1.00;;;16.30;99.90;;;;;;5047760;28;20041;-80
2023/08/21 00:14:08;;;;;;;4.47;1.23;;;16.50;99.90;;;;;;5042025;28;20111;-81
2023/08/21 00:16:34;;;;;;;3.60;1.48;;;16.20;99.90;;;;;;5030147;28;20377;-82
2023/08/21 00:19:00;;;;;;;5.57;1.67;;;16.20;99.90;;;;;;5018675;28;20045;-81
2023/08/21 00:21:25;;;;;;;3.55;1.30;;;16.20;99.90;;;;;;5046452;28;20048;-80
2023/08/21 00:23:51;;;;;;;3.35;1.60;;;16.10;99.90;;;;;;5027619;28;20053;-81
2023/08/21 00:26:17;;;;;;;4.53;1.48;;;16.10;99.90;;;;;;5046796;28;20041;-80
2023/08/21 00:28:43;;;;;;;3.97;1.33;;;16.20;99.90;;;;;;5028361;28;20049;-81
2023/08/21 00:31:08;;;;;;;2.70;0.88;;;16.20;99.90;;;;;;5038430;28;20049;-79
2023/08/21 00:33:34;;;;;;;4.18;1.10;;;16.10;99.90;;;;;;5039748;28;20049;-80
2023/08/21 00:36:00;;;;;;;8.77;1.70;;;16.10;99.90;;;;;;5031735;28;20041;-78
2023/08/21 00:38:26;;;;;;;5.00;1.52;;;16.10;99.90;;;;;;5041300;28;20039;-80
2023/08/21 00:40:52;;;;;;;5.13;1.42;;;16.10;99.90;;;;;;5045455;28;20404;-78
2023/08/21 00:43:18;;;;;;;2.58;1.40;;;16.10;99.90;;;;;;5048065;28;20048;-79
2023/08/21 00:45:46;;;;;;;3.90;1.80;;;16.00;99.90;;;;;;5047405;28;20037;-79
2023/08/21 00:48:13;;;;;;;7.05;1.50;;;16.00;99.90;;;;;;5015139;28;20186;-80
2023/08/21 00:50:39;;;;;;;2.20;1.40;;;16.00;99.90;;;;;;5045107;28;20443;-78
2023/08/21 00:53:06;;;;;;;3.28;1.30;;;16.60;99.90;;;;;;5042866;28;20487;-79
2023/08/21 00:55:32;;;;;;;2.70;1.50;;;15.90;99.90;;;;;;5013058;28;20049;-79
2023/08/21 00:57:59;;;;;;;2.90;1.17;;;15.90;99.90;;;;;;5047265;28;20041;-79
2023/08/21 01:00:26;;;;;;;2.72;1.17;;;15.90;99.90;;;;;;5038476;28;20075;-78
2023/08/21 01:02:51;;;;;;;2.90;1.27;;;15.80;99.90;;;;;;5030469;28;20049;-80
2023/08/21 01:05:19;;;;;;;2.47;1.40;;;15.80;99.90;;;;;;5042807;28;20045;-80
2023/08/21 01:08:18;;;;;;;1.80;1.00;;;15.80;99.90;;;;;;5038783;28;20121;-81
2023/08/21 01:11:15;;;;;;;3.13;0.98;;;15.80;99.90;;;;;;5013889;28;20068;-81
2023/08/21 01:14:03;;;;;;;3.47;0.90;;;15.70;99.90;;;;;;5048940;28;20053;-81
2023/08/21 01:16:30;;;;;;;4.47;1.33;;;15.70;99.90;;;;;;5050036;28;20040;-81
2023/08/21 01:18:57;;;;;;;5.85;1.30;;;15.70;99.90;;;;;;5044337;28;20105;-80
2023/08/21 01:21:23;;;;;;;1.58;0.80;;;15.70;99.90;;;;;;5039701;28;20045;-81
2023/08/21 01:23:49;;;;;;;5.18;0.93;;;15.60;99.90;;;;;;5036839;28;20108;-80
2023/08/21 01:26:14;;;;;;;4.15;1.20;;;15.60;99.90;;;;;;5029928;28;20136;-80
2023/08/21 01:28:40;;;;;;;2.97;0.98;;;15.60;99.90;;;;;;5047840;28;20075;-80
2023/08/21 01:31:21;;;;;;;1.95;0.85;;;15.50;99.90;;;;;;5042717;28;20504;-80
2023/08/21 01:33:51;;;;;;;2.38;0.85;;;15.60;99.90;;;;;;5028857;28;20052;-79
2023/08/21 01:36:17;;;;;;;3.70;1.20;;;15.60;99.90;;;;;;5047322;28;20048;-80
2023/08/21 01:38:44;;;;;;;3.83;1.10;;;15.50;99.90;;;;;;5046973;28;20044;-80
2023/08/21 01:41:09;;;;;;;3.65;1.27;;;15.50;99.90;;;;;;5048536;28;20041;-80
2023/08/21 01:43:35;;;;;;;1.88;1.00;;;15.50;99.90;;;;;;5029750;28;20496;-80
2023/08/21 01:46:02;;;;;;;2.17;0.90;;;15.40;99.90;;;;;;5047304;28;20051;-80
2023/08/21 01:48:27;;;;;;;2.13;0.65;;;15.40;99.90;;;;;;5048078;28;20041;-81
2023/08/21 01:50:53;;;;;;;1.88;0.60;;;15.30;99.90;;;;;;5039066;28;20060;-81
2023/08/21 01:53:19;;;;;;;2.70;1.10;;;15.40;99.90;;;;;;5029869;28;20040;-80
2023/08/21 01:55:44;;;;;;;4.75;1.38;;;15.40;99.90;;;;;;5040628;28;20051;-82
2023/08/21 01:58:10;;;;;;;5.93;0.90;;;16.10;99.90;;;;;;5047590;28;20370;-80
2023/08/21 02:00:36;;;;;;;3.00;1.17;;;15.30;99.90;;;;;;5046506;28;20456;-80
2023/08/21 02:03:01;;;;;;;5.65;1.30;;;15.20;99.90;;;;;;5036650;28;20033;-80
2023/08/21 02:05:27;;;;;;;5.22;1.08;;;15.20;99.90;;;;;;5030003;28;20045;-82
2023/08/21 02:07:52;;;;;;;3.58;1.15;;;16.00;99.90;;;;;;5030753;28;20055;-82
2023/08/21 02:10:18;;;;;;;4.82;1.10;;;15.10;99.90;;;;;;5041346;28;20052;-81
2023/08/21 02:12:44;;;;;;;2.28;1.30;;;15.20;99.90;;;;;;5045657;28;20045;-81
2023/08/21 02:15:10;;;;;;;2.65;0.98;;;15.20;99.90;;;;;;5036258;28;20394;-80
2023/08/21 02:17:36;;;;;;;5.75;0.75;;;15.20;99.90;;;;;;5043485;28;20475;-80
2023/08/21 02:20:01;;;;;;;3.75;1.30;;;15.20;99.90;;;;;;5036874;28;20034;-79
2023/08/21 02:22:27;;;;;;;3.13;1.23;;;15.30;99.90;;;;;;5030609;28;20114;-81
2023/08/21 02:24:53;;;;;;;3.25;1.10;;;15.20;99.90;;;;;;5043706;28;20040;-81
2023/08/21 02:27:19;;;;;;;2.80;1.13;;;15.20;99.90;;;;;;5051209;28;20090;-81
2023/08/21 02:29:44;;;;;;;2.30;1.17;;;15.20;99.90;;;;;;5030854;28;20044;-80
2023/08/21 02:32:10;;;;;;;4.90;1.30;;;15.20;99.90;;;;;;5033793;28;20444;-82
2023/08/21 02:34:36;;;;;;;4.32;1.60;;;15.20;99.90;;;;;;5046094;28;20057;-81
2023/08/21 02:37:02;;;;;;;2.22;1.42;;;15.20;99.90;;;;;;5051673;28;20059;-81
2023/08/21 02:39:28;;;;;;;2.15;0.95;;;15.10;99.90;;;;;;5051453;28;20353;-79
2023/08/21 02:41:54;;;;;;;2.00;0.70;;;15.10;99.90;;;;;;5049836;28;20076;-78
2023/08/21 02:44:19;;;;;;;3.22;1.25;;;15.20;99.90;;;;;;5033565;28;20132;-80
2023/08/21 02:46:45;;;;;;;4.13;1.70;;;15.00;99.90;;;;;;5038434;28;20088;-80
2023/08/21 02:49:11;;;;;;;1.85;0.95;;;15.00;99.90;;;;;;5047519;28;20481;-80
2023/08/21 02:51:36;;;;;;;3.90;1.27;;;15.00;99.90;;;;;;5051538;28;20032;-80
2023/08/21 02:54:02;;;;;;;5.60;1.38;;;14.90;99.90;;;;;;5055135;28;20075;-79
2023/08/21 02:56:28;;;;;;;4.28;0.93;;;15.30;99.90;;;;;;5048192;28;20072;-79
2023/08/21 02:58:53;;;;;;;4.47;1.48;;;14.90;99.90;;;;;;5031609;28;20043;-80
2023/08/21 03:01:19;;;;;;;4.63;1.42;;;14.90;99.90;;;;;;5032918;28;20048;-80
2023/08/21 03:03:44;;;;;;;5.72;1.60;;;14.90;99.90;;;;;;5042172;28;20045;-79
2023/08/21 03:06:10;;;;;;;4.72;1.77;;;14.90;99.90;;;;;;5042883;28;20418;-80
2023/08/21 03:08:36;;;;;;;5.28;1.50;;;14.90;99.90;;;;;;5030917;28;20076;-80
2023/08/21 03:11:01;;;;;;;6.32;2.17;;;14.90;99.90;;;;;;5049966;28;20102;-81
2023/08/21 03:13:27;;;;;;;3.38;1.80;;;14.80;99.90;;;;;;5046058;28;20401;-80
2023/08/21 03:15:52;;;;;;;4.22;1.42;;;14.80;99.90;;;;;;5037064;28;20045;-81
2023/08/21 03:18:18;;;;;;;7.35;2.08;;;14.80;99.90;;;;;;5044760;28;20041;-79
2023/08/21 03:20:45;;;;;;;5.47;2.17;;;14.80;99.90;;;;;;5041721;28;20442;-80
2023/08/21 03:23:12;;;;;;;4.40;1.90;;;14.80;99.90;;;;;;5033216;28;20056;-79
2023/08/21 03:25:38;;;;;;;3.75;1.80;;;15.00;99.90;;;;;;5038802;28;20053;-80
2023/08/21 03:28:03;;;;;;;5.90;1.85;;;14.80;99.90;;;;;;5028975;28;20048;-80
2023/08/21 03:30:29;;;;;;;4.22;1.48;;;14.80;99.90;;;;;;5050745;28;20051;-80
2023/08/21 03:32:55;;;;;;;1.77;1.08;;;14.80;99.90;;;;;;5049171;28;20045;-80
2023/08/21 03:35:20;;;;;;;2.83;1.60;;;14.80;99.90;;;;;;5033038;28;20048;-79
2023/08/21 03:37:46;;;;;;;4.43;1.25;;;14.70;99.90;;;;;;5044355;28;20048;-79
2023/08/21 03:40:12;;;;;;;2.65;1.23;;;14.60;99.90;;;;;;5049584;28;20305;-80
2023/08/21 03:42:37;;;;;;;4.28;1.30;;;14.60;99.90;;;;;;5036696;28;20045;-79
2023/08/21 03:45:06;;;;;;;4.15;1.08;;;15.50;99.90;;;;;;5046964;28;20057;-79
2023/08/21 03:47:32;;;;;;;2.05;1.00;;;14.60;99.90;;;;;;5040633;28;20033;-78
2023/08/21 03:49:57;;;;;;;1.67;0.88;;;14.60;99.90;;;;;;5030989;28;20048;-80
2023/08/21 03:52:23;;;;;;;4.63;1.23;;;14.70;99.90;;;;;;5049611;28;20041;-79
2023/08/21 03:54:49;;;;;;;4.03;1.90;;;14.70;99.90;;;;;;5049387;28;20044;-79
2023/08/21 03:57:14;;;;;;;3.85;1.50;;;15.10;99.90;;;;;;5032095;28;20186;-79
2023/08/21 03:59:40;;;;;;;3.58;1.70;;;14.70;99.90;;;;;;5030863;28;20041;-80
2023/08/21 04:02:06;;;;;;;2.88;1.70;;;14.90;99.90;;;;;;5032395;28;20083;-79
2023/08/21 04:04:31;;;;;;;3.22;1.60;;;14.50;99.90;;;;;;5049873;28;20558;-79
2023/08/21 04:06:57;;;;;;;4.55;1.40;;;13.10;99.90;;;;;;5048462;28;20496;-79
2023/08/21 04:09:23;;;;;;;5.07;1.70;;;14.40;99.90;;;;;;5049591;28;20056;-79
2023/08/21 04:11:48;;;;;;;3.63;1.63;;;14.40;99.90;;;;;;5039417;28;20041;-79
2023/08/21 04:14:14;;;;;;;4.78;2.00;;;14.40;99.90;;;;;;5027210;28;20425;-80
2023/08/21 04:16:39;;;;;;;2.53;1.20;;;14.40;99.90;;;;;;5045699;28;20084;-79
2023/08/21 04:19:05;;;;;;;4.60;1.50;;;14.40;99.90;;;;;;5049408;28;20057;-79
2023/08/21 04:21:31;;;;;;;4.68;1.20;;;14.40;99.90;;;;;;5041941;28;20045;-80
2023/08/21 04:23:56;;;;;;;3.42;1.42;;;15.70;99.90;;;;;;5047988;28;20049;-80
2023/08/21 04:26:22;;;;;;;3.88;1.30;;;14.60;99.90;;;;;;5046891;28;20040;-79
2023/08/21 04:28:48;;;;;;;4.20;1.15;;;14.30;99.90;;;;;;5043676;28;20049;-79
2023/08/21 04:31:13;;;;;;;7.25;1.55;;;14.40;99.90;;;;;;5051701;28;20140;-79
2023/08/21 04:33:42;;;;;;;5.53;1.30;;;14.30;99.90;;;;;;5044213;28;20053;-79
2023/08/21 04:36:14;;;;;;;5.85;1.48;;;14.30;99.90;;;;;;5048446;28;20099;-80
2023/08/21 04:38:40;;;;;;;2.70;1.48;;;14.30;99.90;;;;;;5049357;28;20090;-79
2023/08/21 04:41:09;;;;;;;4.78;1.85;;;14.30;99.90;;;;;;5040182;28;20041;-79
2023/08/21 04:43:35;;;;;;;4.28;2.08;;;14.30;99.90;;;;;;5008475;28;20044;-82
2023/08/21 04:46:01;;;;;;;3.90;1.70;;;14.30;99.90;;;;;;5027914;28;20086;-80
2023/08/21 04:48:28;;;;;;;3.03;1.42;;;15.30;99.90;;;;;;5030303;28;20431;-79
2023/08/21 04:50:54;;;;;;;3.92;1.55;;;14.30;99.90;;;;;;5047869;28;20385;-80
2023/08/21 04:53:20;;;;;;;3.63;1.33;;;14.30;99.90;;;;;;5049571;28;20048;-80
2023/08/21 04:55:45;;;;;;;3.20;1.23;;;14.30;99.90;;;;;;5038129;28;20037;-78
2023/08/21 04:58:11;;;;;;;3.38;1.63;;;15.60;99.90;;;;;;5043795;28;20064;-80
2023/08/21 05:00:37;;;;;;;4.78;1.42;;;14.30;99.90;;;;;;5030138;28;20041;-82
2023/08/21 05:03:03;;;;;;;5.57;1.35;;;14.20;99.90;;;;;;5045414;28;20044;-81
2023/08/21 05:05:29;;;;;;;3.25;1.20;;;14.30;99.90;;;;;;5029813;28;20110;-80
2023/08/21 05:07:55;;;;;;;3.92;1.45;;;14.30;99.90;;;;;;5042858;28;20071;-80
2023/08/21 05:10:20;;;;;;;4.20;1.23;;;14.30;99.90;;;;;;5014152;28;20080;-80
2023/08/21 05:12:46;;;;;;;4.43;1.50;;;15.30;99.90;;;;;;5047623;28;20049;-80
2023/08/21 05:15:12;;;;;;;4.70;1.67;;;15.60;99.90;;;;;;5029913;28;20048;-80
2023/08/21 05:17:38;;;;;;;3.88;1.58;;;14.30;99.90;;;;;;5028116;28;20037;-81
2023/08/21 05:20:04;;;;;;;3.47;1.58;;;14.60;99.90;;;;;;5048751;28;20041;-80
2023/08/21 05:22:30;;;;;;;4.63;2.10;;;14.30;99.90;;;;;;5034027;28;20065;-78
2023/08/21 05:24:56;;;;;;;4.15;1.85;;;14.40;99.90;;;;;;5036517;28;20114;-83
2023/08/21 05:27:21;;;;;;;3.15;1.58;;;14.50;99.90;;;;;;5033335;28;20551;-82
2023/08/21 05:29:49;;;;;;;5.47;1.23;;;14.50;99.90;;;;;;4350011;28;10000808;-82
2023/08/21 05:32:15;;;;;;;2.80;1.60;;;14.50;99.90;;;;;;5044986;28;20071;-77
2023/08/21 05:34:41;;;;;;;4.93;1.88;;;14.50;99.90;;;;;;5038108;28;20049;-79
2023/08/21 05:37:07;;;;;;;6.10;2.08;;;14.60;99.90;;;;;;5046685;28;20056;-80
2023/08/21 05:39:33;;;;;;;2.45;1.42;;;15.20;99.90;;;;;;5038392;28;20113;-80
2023/08/21 05:41:59;;;;;;;6.22;1.65;;;14.70;99.90;;;;;;5031929;28;20759;-81
2023/08/21 05:44:25;;;;;;;2.65;1.10;;;14.70;99.90;;;;;;5042955;28;20336;-79
2023/08/21 05:46:50;;;;;;;2.13;1.33;;;14.80;99.90;;;;;;5032095;28;20045;-79
2023/08/21 05:49:16;;;;;;;3.05;1.13;;;14.80;99.90;;;;;;5033848;28;20040;-79
2023/08/21 05:51:41;;;;;;;5.15;1.42;;;14.90;99.90;;;;;;5036952;28;20059;-77
2023/08/21 05:54:07;;;;;;;4.90;1.38;;;14.90;99.90;;;;;;5040022;28;20046;-80
2023/08/21 05:56:33;;;;;;;5.07;1.83;;;15.00;99.90;;;;;;5036783;28;20064;-81
2023/08/21 05:58:58;;;;;;;6.97;2.22;;;15.00;99.90;;;;;;5028175;28;20341;-80
2023/08/21 06:01:24;;;;;;;5.80;1.80;;;15.10;99.90;;;;;;5047775;28;20083;-81
2023/08/21 06:03:49;;;;;;;5.90;2.00;;;15.10;99.90;;;;;;5046687;28;20447;-80
2023/08/21 06:06:15;;;;;;;4.88;1.63;;;15.10;99.90;;;;;;5045628;28;20125;-82
2023/08/21 06:08:41;;;;;;;7.05;1.75;;;15.20;99.90;;;;;;5048258;28;20091;-81
2023/08/21 06:11:06;;;;;;;10.20;2.90;;;15.30;99.90;;;;;;5056533;28;20037;-80
2023/08/21 06:13:32;;;;;;;4.80;2.28;;;15.30;99.90;;;;;;5048587;28;20083;-80
2023/08/21 06:15:57;;;;;;;6.25;2.63;;;15.30;99.90;;;;;;5046782;28;20041;-81
2023/08/21 06:18:23;;;;;;;8.65;4.50;;;15.50;99.90;;;;;;5029841;28;20079;-81
2023/08/21 06:20:53;;;;;;;8.63;4.28;;;15.40;99.90;;;;;;5046552;28;20041;-82
2023/08/21 06:23:21;;;;;;;6.63;3.28;;;15.50;99.90;;;;;;5043514;28;20416;-81
2023/08/21 06:25:48;;;;;;;7.10;2.67;;;15.50;99.90;;;;;;5013604;28;20500;-81
2023/08/21 06:28:13;;;;;;;3.58;1.52;;;15.60;99.90;;;;;;5042347;28;20045;-81
2023/08/21 06:30:39;;;;;;;9.50;2.20;;;15.60;99.90;;;;;;5043288;28;20052;-81
2023/08/21 06:33:05;;;;;;;6.93;2.05;;;15.70;99.90;;;;;;5037857;28;20394;-81
2023/08/21 06:35:30;;;;;;;9.23;2.42;;;15.80;99.90;;;;;;5047365;28;20510;-81
2023/08/21 06:37:56;;;;;;;8.02;2.40;;;15.80;99.90;;;;;;5039744;28;20029;-81
2023/08/21 06:40:22;;;;;;;10.38;1.60;;;15.90;99.90;;;;;;5042824;28;20029;-80
2023/08/21 06:42:50;;;;;;;6.97;1.65;;;15.90;99.90;;;;;;5044743;28;20037;-82
2023/08/21 06:45:16;;;;;;;4.60;1.90;;;16.50;99.90;;;;;;5043730;28;20084;-82
2023/08/21 06:47:42;;;;;;;5.63;1.83;;;16.10;99.90;;;;;;5042594;28;20038;-81
2023/08/21 06:50:08;;;;;;;5.43;2.10;;;16.10;99.90;;;;;;5036551;28;20045;-82
2023/08/21 06:52:34;;;;;;;8.20;1.77;;;16.20;99.90;;;;;;5039512;28;20044;-83
2023/08/21 06:54:59;;;;;;;7.45;2.20;;;16.20;99.90;;;;;;5039213;28;20033;-82
2023/08/21 06:57:25;;;;;;;4.63;1.60;;;16.30;99.90;;;;;;5040349;28;20036;-82
2023/08/21 06:59:50;;;;;;;5.15;1.60;;;16.30;99.90;;;;;;5041323;28;20041;-81
2023/08/21 07:02:16;;;;;;;7.43;1.45;;;16.40;99.90;;;;;;5037659;28;20116;-82
2023/08/21 07:04:42;;;;;;;7.10;1.65;;;16.40;99.90;;;;;;5047862;28;20507;-84
2023/08/21 07:07:07;;;;;;;8.20;2.67;;;17.00;99.90;;;;;;5041762;28;20041;-82
2023/08/21 07:09:33;;;;;;;8.57;1.45;;;16.60;99.90;;;;;;5043478;28;20386;-81
2023/08/21 07:11:58;;;;;;;4.78;1.75;;;16.70;99.90;;;;;;5033471;28;20072;-81
2023/08/21 07:14:24;;;;;;;5.93;1.80;;;16.70;99.90;;;;;;5052587;28;20049;-81
2023/08/21 07:16:50;;;;;;;5.72;1.25;;;16.80;99.90;;;;;;5044997;28;20583;-80
2023/08/21 07:19:17;;;;;;;6.30;1.60;;;16.90;99.90;;;;;;5033353;28;20405;-81
2023/08/21 07:21:42;;;;;;;7.45;1.20;;;17.80;99.90;;;;;;5048828;28;20477;-83
2023/08/21 07:24:08;;;;;;;6.85;1.42;;;17.00;99.90;;;;;;5050358;28;20072;-81
2023/08/21 07:26:34;;;;;;;5.10;1.02;;;17.10;99.90;;;;;;5051452;28;20037;-80
2023/08/21 07:29:01;;;;;;;7.18;1.13;;;17.10;99.90;;;;;;5001798;28;20052;-82
2023/08/21 07:31:27;;;;;;;5.60;1.20;;;17.20;99.90;;;;;;5050109;28;20049;-82
2023/08/21 07:33:54;;;;;;;3.40;0.80;;;18.30;99.90;;;;;;4348849;28;10000736;-81
2023/08/21 07:36:20;;;;;;;5.07;1.13;;;17.30;99.90;;;;;;5032525;28;20049;-80
2023/08/21 07:38:45;;;;;;;5.38;0.98;;;17.40;99.90;;;;;;5050528;28;20025;-79
2023/08/21 07:41:12;;;;;;;7.22;1.35;;;17.50;99.90;;;;;;5048350;28;20104;-81
2023/08/21 07:43:41;;;;;;;7.57;1.60;;;17.60;99.90;;;;;;5043962;28;20495;-81
2023/08/21 07:46:09;;;;;;;5.75;2.03;;;17.80;99.90;;;;;;5047229;28;20483;-83
2023/08/21 07:48:35;;;;;;;2.58;0.82;;;17.90;99.90;;;;;;5035094;28;20060;-82
2023/08/21 07:51:01;;;;;;;5.65;1.48;;;18.10;99.90;;;;;;5056476;28;20033;-80
2023/08/21 07:53:27;;;;;;;4.75;1.17;;;18.20;99.90;;;;;;5041357;28;20049;-82
2023/08/21 07:55:53;;;;;;;7.05;1.15;;;18.40;99.90;;;;;;5047973;28;20045;-80
2023/08/21 07:58:19;;;;;;;5.18;0.98;;;18.30;99.90;;;;;;5045753;28;20576;-79
2023/08/21 08:00:45;;;;;;;7.32;1.13;;;18.40;99.90;;;;;;5030059;28;20121;-81
2023/08/21 08:03:11;;;;;;;5.50;1.08;;;18.40;99.90;;;;;;5048387;28;20056;-77
2023/08/21 08:05:38;;;;;;;4.75;1.33;;;18.40;99.90;;;;;;5044128;28;20044;-81
2023/08/21 08:08:04;;;;;;;3.08;0.90;;;18.40;99.90;;;;;;5029605;28;20037;-79
2023/08/21 08:10:30;;;;;;;4.53;1.17;;;18.60;99.90;;;;;;5047860;28;20175;-80
2023/08/21 08:12:56;;;;;;;4.13;0.73;;;18.70;99.90;;;;;;5046682;28;20090;-81
2023/08/21 08:15:22;;;;;;;2.55;0.80;;;18.80;99.90;;;;;;5047400;28;20080;-79
2023/08/21 08:17:52;;;;;;;4.00;1.00;;;18.80;99.90;;;;;;5044635;28;20046;-81
2023/08/21 08:20:17;;;;;;;5.20;1.15;;;19.30;99.90;;;;;;5046920;28;20056;-80
2023/08/21 08:22:43;;;;;;;4.65;1.33;;;19.00;99.90;;;;;;5039155;28;20230;-80
2023/08/21 08:25:10;;;;;;;4.80;1.42;;;19.10;99.90;;;;;;5048188;28;20056;-81
2023/08/21 08:27:36;;;;;;;5.90;1.45;;;19.10;99.90;;;;;;5047323;28;20048;-81
2023/08/21 08:30:03;;;;;;;4.40;1.02;;;19.30;99.90;;;;;;5047156;28;20049;-82
2023/08/21 08:32:29;;;;;;;5.38;0.93;;;19.30;99.90;;;;;;5047712;28;20448;-81
2023/08/21 08:34:54;;;;;;;5.47;0.75;;;19.40;99.90;;;;;;5010036;28;20037;-79
2023/08/21 08:37:20;;;;;;;5.47;0.98;;;19.40;99.90;;;;;;5028800;28;20190;-80
2023/08/21 08:39:47;;;;;;;4.05;1.00;;;19.50;99.90;;;;;;5043883;28;20076;-79
2023/08/21 08:42:14;;;;;;;4.35;1.02;;;19.40;99.90;;;;;;5036057;28;20548;-82
2023/08/21 08:44:41;;;;;;;8.57;1.30;;;19.60;99.90;;;;;;5027946;28;20053;-81
2023/08/21 08:47:11;;;;;;;5.63;1.10;;;19.60;99.90;;;;;;5045523;28;20073;-81
2023/08/21 08:49:37;;;;;;;3.13;1.00;;;19.70;99.90;;;;;;5029268;28;20037;-79
2023/08/21 08:52:03;;;;;;;3.05;0.95;;;18.80;99.90;;;;;;5046269;28;20466;-80
2023/08/21 08:54:30;;;;;;;5.03;1.08;;;19.90;99.90;;;;;;5027428;28;20410;-82
2023/08/21 08:56:58;;;;;;;3.50;0.90;;;20.00;99.90;;;;;;5030649;28;20047;-81
2023/08/21 08:59:25;;;;;;;5.43;0.90;;;20.00;99.90;;;;;;5046865;28;20037;-82
2023/08/21 09:01:51;;;;;;;6.32;1.58;;;20.00;99.90;;;;;;5045864;28;20501;-80
2023/08/21 09:04:16;;;;;;;6.38;1.08;;;20.00;99.90;;;;;;5029015;28;20135;-80
2023/08/21 09:06:42;;;;;;;3.47;1.33;;;20.00;99.90;;;;;;5046764;28;20053;-81
2023/08/21 09:09:10;;;;;;;8.10;1.48;;;20.10;99.90;;;;;;5040768;28;20072;-80
2023/08/21 09:11:42;;;;;;;4.05;1.48;;;20.10;99.90;;;;;;5028597;28;20437;-80
2023/08/21 09:14:11;;;;;;;5.80;1.17;;;20.20;99.90;;;;;;5029956;28;20068;-81
2023/08/21 09:16:37;;;;;;;4.93;1.13;;;20.20;99.90;;;;;;5040786;28;20102;-81
2023/08/21 09:19:04;;;;;;;3.28;1.00;;;20.30;99.90;;;;;;5044801;28;20657;-82
2023/08/21 09:21:30;;;;;;;4.35;0.88;;;20.40;99.90;;;;;;5046104;28;20103;-81
2023/08/21 09:23:58;;;;;;;4.35;1.08;;;20.40;99.90;;;;;;5047107;28;20408;-80
2023/08/21 09:26:25;;;;;;;5.47;1.20;;;20.50;99.90;;;;;;5034439;28;20608;-78
2023/08/21 09:28:53;;;;;;;3.97;1.20;;;20.50;99.90;;;;;;5048961;28;20890;-79
2023/08/21 09:31:30;;;;;;;7.53;1.35;;;20.60;99.90;;;;;;5047974;28;20416;-82
2023/08/21 09:34:00;;;;;;;3.83;1.02;;;20.70;99.90;;;;;;5040056;28;20040;-80
2023/08/21 09:36:30;;;;;;;3.63;0.88;;;20.70;99.90;;;;;;5046751;28;20040;-82
2023/08/21 09:38:57;;;;;;;2.47;0.88;;;20.80;99.90;;;;;;5027824;28;20037;-80
2023/08/21 09:41:24;;;;;;;5.00;1.10;;;20.80;99.90;;;;;;5028711;28;20091;-83
2023/08/21 09:43:50;;;;;;;3.05;0.80;;;20.90;99.90;;;;;;5030780;28;20063;-81
2023/08/21 09:46:17;;;;;;;2.72;0.60;;;21.00;99.90;;;;;;5038976;28;20519;-80
2023/08/21 09:48:47;;;;;;;4.57;0.93;;;21.00;99.90;;;;;;5028105;28;20123;-80
2023/08/21 09:51:13;;;;;;;3.05;1.10;;;21.10;99.90;;;;;;5044820;28;20092;-80
2023/08/21 09:53:40;;;;;;;2.08;0.80;;;21.10;99.90;;;;;;5042745;28;20527;-83
2023/08/21 09:56:08;;;;;;;2.85;1.00;;;21.70;99.90;;;;;;5028980;28;20148;-83
2023/08/21 09:58:35;;;;;;;2.75;1.13;;;21.20;99.90;;;;;;5042851;28;20057;-82
2023/08/21 10:01:14;;;;;;;3.97;1.05;;;21.30;99.90;;;;;;5052934;28;20056;-81
2023/08/21 10:03:41;;;;;;;4.35;0.95;;;21.40;99.90;;;;;;5032122;28;20060;-82
2023/08/21 10:06:09;;;;;;;4.47;1.42;;;21.40;99.90;;;;;;5029487;28;20103;-82
2023/08/21 10:08:41;;;;;;;4.85;1.13;;;21.50;99.90;;;;;;5027964;28;20120;-81
2023/08/21 10:11:08;;;;;;;2.53;0.85;;;21.60;99.90;;;;;;5010387;28;20448;-80
2023/08/21 10:13:36;;;;;;;3.30;1.00;;;21.70;99.90;;;;;;5039774;28;20045;-80
2023/08/21 10:16:02;;;;;;;4.43;1.20;;;21.70;99.90;;;;;;5011740;28;20037;-76
2023/08/21 10:18:35;;;;;;;3.65;1.10;;;21.70;99.90;;;;;;5028962;28;20430;-79
2023/08/21 10:21:15;;;;;;;5.50;1.00;;;21.70;99.90;;;;;;5030616;28;20049;-79
2023/08/21 10:23:42;;;;;;;2.80;0.93;;;21.80;99.90;;;;;;5035790;28;20045;-78
2023/08/21 10:26:10;;;;;;;4.60;0.90;;;21.80;99.90;;;;;;5038084;28;20041;-82
2023/08/21 10:28:47;;;;;;;2.75;1.17;;;21.90;99.90;;;;;;5038666;28;20085;-81
2023/08/21 10:31:33;;;;;;;5.90;1.70;;;22.00;99.90;;;;;;5027721;28;20057;-80
2023/08/21 10:34:03;;;;;;;4.28;0.95;;;22.00;99.90;;;;;;5018197;28;20055;-81
2023/08/21 10:36:38;;;;;;;5.35;1.30;;;22.00;99.90;;;;;;5044641;28;20053;-86
2023/08/21 10:39:04;;;;;;;2.15;1.00;;;22.00;99.90;;;;;;5023454;28;20037;-86
2023/08/21 10:41:30;;;;;;;5.05;1.45;;;22.10;99.90;;;;;;5026047;28;20049;-79
2023/08/21 10:43:56;;;;;;;5.55;1.75;;;22.10;99.90;;;;;;5040197;28;20059;-79
2023/08/21 10:46:21;;;;;;;3.22;1.13;;;22.20;99.90;;;;;;5031839;28;20090;-79
2023/08/21 10:48:47;;;;;;;5.57;1.35;;;22.20;99.90;;;;;;5048148;28;20029;-79
2023/08/21 10:51:13;;;;;;;6.53;1.25;;;22.30;99.90;;;;;;5032840;28;20079;-79
2023/08/21 10:53:41;;;;;;;4.63;1.35;;;22.40;99.90;;;;;;5015984;28;20549;-80
2023/08/21 10:56:07;;;;;;;2.17;0.80;;;22.50;99.90;;;;;;5016223;28;20112;-79
2023/08/21 10:58:41;;;;;;;6.05;1.40;;;22.50;99.90;;;;;;5029360;28;20122;-80
2023/08/21 11:01:07;;;;;;;3.70;1.35;;;22.60;99.90;;;;;;5021873;28;20098;-82
2023/08/21 11:03:39;;;;;;;5.78;1.48;;;22.70;99.90;;;;;;5043051;28;20037;-79
2023/08/21 11:06:09;;;;;;;4.45;1.15;;;22.70;99.90;;;;;;5024012;28;20045;-80
2023/08/21 11:08:36;;;;;;;3.72;1.13;;;22.70;99.90;;;;;;5033508;28;20036;-80
2023/08/21 11:11:04;;;;;;;4.85;1.50;;;22.80;99.90;;;;;;5031749;28;20045;-81
2023/08/21 11:13:30;;;;;;;2.42;0.90;;;22.90;99.90;;;;;;5032015;28;20063;-81
2023/08/21 11:16:01;;;;;;;4.47;1.15;;;23.00;99.90;;;;;;5028787;28;20064;-81
2023/08/21 11:18:40;;;;;;;5.22;1.17;;;23.10;99.90;;;;;;5015725;28;20195;-80
2023/08/21 11:21:10;;;;;;;4.03;2.08;;;23.20;99.90;;;;;;5041173;28;20394;-85
2023/08/21 11:23:39;;;;;;;5.25;1.33;;;23.30;99.90;;;;;;5030713;28;20194;-82
2023/08/21 11:26:05;;;;;;;3.42;1.05;;;23.40;99.90;;;;;;5049526;28;20037;-83
2023/08/21 11:28:32;;;;;;;3.45;1.33;;;23.40;99.90;;;;;;5049192;28;20563;-83
2023/08/21 11:30:59;;;;;;;4.68;1.30;;;23.50;99.90;;;;;;5028607;28;20064;-82
2023/08/21 11:33:26;;;;;;;5.13;1.33;;;23.60;99.90;;;;;;5031378;28;20131;-80
2023/08/21 11:35:53;;;;;;;6.70;2.05;;;23.70;99.90;;;;;;4683074;28;9999789;-80
2023/08/21 11:38:24;;;;;;;7.20;2.15;;;23.70;99.90;;;;;;5014335;28;20048;-83
2023/08/21 11:40:58;;;;;;;6.85;2.10;;;23.70;99.90;;;;;;5030083;28;20060;-82
2023/08/21 11:43:38;;;;;;;5.43;2.28;;;23.60;99.90;;;;;;5014438;28;20040;-83
2023/08/21 11:46:05;;;;;;;7.38;2.42;;;23.60;99.90;;;;;;5045053;28;20057;-83
2023/08/21 11:48:31;;;;;;;6.57;2.17;;;23.60;99.90;;;;;;5043372;28;20040;-82
2023/08/21 11:50:56;;;;;;;5.75;2.17;;;23.70;99.90;;;;;;5048055;28;20058;-83
2023/08/21 11:53:33;;;;;;;5.45;1.83;;;23.80;99.90;;;;;;5040907;28;20048;-82
2023/08/21 11:56:04;;;;;;;4.45;1.73;;;24.00;99.90;;;;;;5043088;28;20063;-84
2023/08/21 11:58:30;;;;;;;13.55;2.53;;;24.10;99.90;;;;;;5018709;28;20120;-83
2023/08/21 12:01:09;;;;;;;11.52;2.50;;;24.20;99.90;;;;;;5033530;28;20241;-83
2023/08/21 12:03:40;;;;;;;7.03;1.77;;;24.30;99.90;;;;;;5048479;28;20106;-85
2023/08/21 12:06:10;;;;;;;5.18;2.28;;;24.40;99.90;;;;;;5021976;28;20049;-83
2023/08/21 12:08:37;;;;;;;4.63;1.40;;;24.50;99.90;;;;;;5046903;28;20041;-83
2023/08/21 12:11:02;;;;;;;6.57;1.13;;;24.60;99.90;;;;;;5029314;28;20368;-84
2023/08/21 12:13:29;;;;;;;6.93;1.33;;;24.60;99.90;;;;;;5047829;28;20083;-83
2023/08/21 12:15:55;;;;;;;5.38;1.13;;;24.70;99.90;;;;;;5029853;28;20056;-83
2023/08/21 12:18:20;;;;;;;3.90;0.82;;;24.70;99.90;;;;;;5029505;28;20033;-81
2023/08/21 12:20:46;;;;;;;5.85;1.10;;;24.60;99.90;;;;;;5040403;28;20037;-82
2023/08/21 12:23:11;;;;;;;5.45;0.98;;;24.70;99.90;;;;;;5030123;28;20393;-83
2023/08/21 12:25:37;;;;;;;5.50;1.05;;;24.60;99.90;;;;;;5039857;28;20033;-79
2023/08/21 12:28:03;;;;;;;5.10;0.90;;;24.60;99.90;;;;;;5028180;28;20048;-82
2023/08/21 12:30:29;;;;;;;5.32;1.00;;;24.70;99.90;;;;;;5046509;28;20481;-83
2023/08/21 12:32:54;;;;;;;6.00;0.95;;;24.80;99.90;;;;;;5039279;28;20048;-81
2023/08/21 12:35:20;;;;;;;3.58;1.05;;;24.90;99.90;;;;;;5039245;28;20052;-80
2023/08/21 12:37:46;;;;;;;5.68;1.63;;;24.90;99.90;;;;;;5047300;28;20064;-80
2023/08/21 12:40:12;;;;;;;7.25;1.15;;;25.00;99.90;;;;;;5031428;28;20448;-81
2023/08/21 12:42:38;;;;;;;4.00;0.95;;;25.10;99.90;;;;;;5055031;28;20528;-82
2023/08/21 12:45:05;;;;;;;6.55;1.45;;;25.10;99.90;;;;;;5030686;28;20493;-82